YBC weather

Baie Comeau Airport
Baie-Comeau, Quebec, Canada

Public forecast

Using degrees Celsius for public forecast. Weather courtesy of forecast.io.

Current aviation weather report (METAR) for Baie Comeau Airport

Retrieved 2019/10/19 04:00 UTC (25 minutes ago):

CYBC 190400Z AUTO 27007KT 9SM OVC034 07/03 A2962 RMK SLP031

Aviation forecast (TAF) for Baie Comeau Airport

Retrieved 2019-10-19 02:00 UTC (2 hours ago):

TAF CYBC 190139Z 1902/1914 30008KT P6SM BKN030 OVC070 TEMPO 1902/1914 BKN020 OVC030 RMK FCST BASED ON AUTO OBS NXT FCST BY 190800Z